Time;durP1;ratioP1;P1;durP2;ratioP2;P2;SDS_P1;SDS_P2;PMS_P1;PMS_P2;Temp;Humidity;BMP_temperature;BMP_pressure;BME280_temperature;BME280_humidity;BME280_pressure;Samples;Min_cycle;Max_cycle;Signal;HPM_P1;HPM_P2
2023/01/31 00:03:06;;;;;;;10.23;3.08;;;;;;;3.13;67.20;100756.56;10422830;28;20057;-65
2023/01/31 00:08:08;;;;;;;15.02;4.00;;;;;;;3.12;66.98;100736.75;10426078;28;20049;-65
2023/01/31 00:13:09;;;;;;;19.75;4.70;;;;;;;3.02;67.35;100749.84;10425996;28;20420;-66
2023/01/31 00:18:11;;;;;;;20.08;4.55;;;;;;;3.13;67.20;100754.81;10426846;28;20053;-65
2023/01/31 00:23:13;;;;;;;21.38;4.32;;;;;;;2.95;67.67;100755.13;10420343;28;20068;-65
2023/01/31 00:28:14;;;;;;;18.38;4.28;;;;;;;2.79;67.89;100746.75;10426879;28;20386;-65
2023/01/31 00:33:16;;;;;;;25.75;4.35;;;;;;;2.71;68.15;100750.31;10425381;28;20045;-65
2023/01/31 00:38:18;;;;;;;22.52;3.97;;;;;;;2.82;68.09;100757.06;10425921;28;20251;-65
2023/01/31 00:43:20;;;;;;;24.35;4.45;;;;;;;2.90;67.92;100775.88;10425921;28;20060;-65
2023/01/31 00:48:22;;;;;;;18.98;3.70;;;;;;;2.95;67.88;100774.06;10425983;28;20052;-65
2023/01/31 00:53:24;;;;;;;23.52;4.20;;;;;;;2.96;67.69;100765.44;10423280;28;20052;-65
2023/01/31 00:58:26;;;;;;;22.58;4.30;;;;;;;2.89;68.05;100775.88;10425552;28;20053;-65
2023/01/31 01:03:27;;;;;;;17.95;3.50;;;;;;;2.79;68.20;100769.16;10420126;28;20444;-65
2023/01/31 01:08:30;;;;;;;22.77;4.05;;;;;;;2.64;68.66;100767.63;10423746;28;20073;-65
2023/01/31 01:13:32;;;;;;;21.45;4.05;;;;;;;2.60;68.63;100765.13;10418808;28;20496;-65
2023/01/31 01:18:34;;;;;;;22.00;3.80;;;;;;;2.56;68.57;100773.81;10425258;28;20049;-65
2023/01/31 01:23:37;;;;;;;19.98;4.43;;;;;;;2.60;68.58;100778.88;10424223;28;20519;-65
2023/01/31 01:28:39;;;;;;;20.50;4.30;;;;;;;2.60;68.27;100786.63;10424891;28;20060;-65
2023/01/31 01:33:41;;;;;;;20.83;3.83;;;;;;;2.67;68.12;100785.69;10406255;28;20060;-65
2023/01/31 01:38:44;;;;;;;18.75;3.75;;;;;;;2.89;67.96;100783.63;10425111;28;20045;-65
2023/01/31 01:43:54;;;;;;;28.88;4.22;;;;;;;2.89;68.02;100784.50;10423412;28;20055;-65
2023/01/31 01:49:29;;;;;;;22.20;4.20;;;;;;;2.80;68.36;100781.19;10433342;28;20053;-65
2023/01/31 01:54:48;;;;;;;20.98;4.00;;;;;;;2.56;69.10;100784.97;10431126;28;20517;-65
2023/01/31 02:00:13;;;;;;;20.63;3.35;;;;;;;2.45;69.75;100770.50;10431041;28;20088;-65
2023/01/31 02:05:20;;;;;;;21.27;3.38;;;;;;;2.53;69.09;100772.13;10423672;28;20045;-65
2023/01/31 02:10:49;;;;;;;28.88;4.32;;;;;;;2.35;69.26;100774.09;10424219;28;20485;-65
2023/01/31 02:15:51;;;;;;;21.05;4.10;;;;;;;2.29;69.36;100769.88;10424185;28;20036;-65
2023/01/31 02:21:19;;;;;;;24.88;5.00;;;;;;;2.27;69.74;100771.59;10425416;28;20386;-65
2023/01/31 02:26:42;;;;;;;24.08;5.57;;;;;;;2.36;70.15;100776.63;10414609;28;20464;-65
2023/01/31 02:32:11;;;;;;;25.40;4.38;;;;;;;2.68;69.16;100763.31;10420625;28;20104;-65
2023/01/31 02:37:35;;;;;;;25.30;4.10;;;;;;;2.80;68.30;100766.56;10420779;28;20049;-65
2023/01/31 02:42:52;;;;;;;21.50;4.50;;;;;;;2.84;68.26;100769.94;10419156;28;20889;-65
2023/01/31 02:47:57;;;;;;;21.52;4.93;;;;;;;2.84;68.13;100770.81;10419608;28;20045;-65
2023/01/31 02:53:27;;;;;;;33.30;5.68;;;;;;;2.78;68.40;100770.03;10421086;28;20061;-65
2023/01/31 02:58:35;;;;;;;30.23;6.82;;;;;;;2.78;68.20;100785.53;10422270;28;20436;-65
2023/01/31 03:03:37;;;;;;;33.25;6.22;;;;;;;2.75;68.04;100780.41;10424879;28;20147;-65
2023/01/31 03:08:43;;;;;;;28.48;4.68;;;;;;;2.62;68.16;100784.06;10428439;28;20051;-65
2023/01/31 03:14:09;;;;;;;21.10;4.55;;;;;;;2.47;67.94;100789.41;10430193;28;20048;-64
2023/01/31 03:19:15;;;;;;;26.38;4.80;;;;;;;2.41;68.07;100794.66;10430331;28;20049;-65
2023/01/31 03:24:20;;;;;;;26.13;3.90;;;;;;;2.44;67.61;100795.47;10427737;28;20064;-64
2023/01/31 03:29:23;;;;;;;24.13;4.15;;;;;;;2.31;67.73;100796.50;10427165;28;20460;-65
2023/01/31 03:34:26;;;;;;;24.83;4.43;;;;;;;2.23;67.91;100806.06;10428746;28;20513;-65
2023/01/31 03:39:37;;;;;;;24.63;3.97;;;;;;;2.29;67.62;100793.09;10428805;28;20453;-65
2023/01/31 03:44:52;;;;;;;;;;;;;;;2.00;68.26;100801.19;10428763;28;20056;-65
2023/01/31 03:49:57;;;;;;;24.65;3.80;;;;;;;2.25;67.49;100803.47;10430421;28;20011;-65
2023/01/31 03:55:07;;;;;;;23.80;4.45;;;;;;;2.18;67.67;100800.09;10424069;28;20045;-65
2023/01/31 04:00:13;;;;;;;22.88;4.07;;;;;;;2.14;67.49;100803.59;10428941;28;20520;-65
2023/01/31 04:05:20;;;;;;;18.60;3.75;;;;;;;2.12;67.57;100797.59;10421832;28;20068;-64
2023/01/31 04:10:23;;;;;;;22.58;3.75;;;;;;;2.12;67.35;100790.72;10419326;28;20067;-64
2023/01/31 04:15:24;;;;;;;19.77;3.55;;;;;;;2.02;67.76;100796.00;10420709;28;20456;-65
2023/01/31 04:20:26;;;;;;;24.67;4.90;;;;;;;1.99;67.57;100778.81;10418353;28;20076;-64
2023/01/31 04:25:28;;;;;;;16.67;4.25;;;;;;;1.89;67.78;100781.53;10416589;28;20045;-65
2023/01/31 04:30:33;;;;;;;19.98;3.88;;;;;;;1.88;67.58;100778.09;10418487;28;20076;-65
2023/01/31 04:35:34;;;;;;;21.38;3.20;;;;;;;1.82;67.40;100772.16;10417716;28;20056;-65
2023/01/31 04:40:36;;;;;;;20.00;3.80;;;;;;;1.80;67.33;100773.88;10417270;28;20543;-65
2023/01/31 04:45:38;;;;;;;28.17;3.78;;;;;;;1.61;67.63;100773.22;10418979;28;20524;-65
2023/01/31 04:50:40;;;;;;;17.70;3.67;;;;;;;1.63;67.59;100783.50;10412207;28;20052;-65
2023/01/31 04:55:41;;;;;;;21.73;4.45;;;;;;;1.67;67.36;100777.44;10419299;28;20053;-65
2023/01/31 05:00:43;;;;;;;20.92;4.13;;;;;;;1.62;67.36;100781.81;10416194;28;20049;-65
2023/01/31 05:05:49;;;;;;;18.80;3.72;;;;;;;1.50;67.72;100779.34;10419936;28;20052;-65
2023/01/31 05:10:58;;;;;;;22.25;4.25;;;;;;;1.55;67.72;100777.56;10409886;28;20409;-65
2023/01/31 05:16:07;;;;;;;17.40;3.67;;;;;;;1.58;67.39;100769.81;10426531;28;20662;-65
2023/01/31 05:21:09;;;;;;;21.70;3.85;;;;;;;1.57;67.56;100763.81;10419456;28;20047;-65
2023/01/31 05:26:11;;;;;;;20.42;5.22;;;;;;;1.64;67.65;100762.88;10416718;28;20296;-65
2023/01/31 05:31:13;;;;;;;22.40;4.20;;;;;;;1.71;67.58;100758.50;10418985;28;20053;-65
2023/01/31 05:36:14;;;;;;;19.88;4.20;;;;;;;1.72;67.27;100749.91;10416139;28;20049;-65
2023/01/31 05:41:16;;;;;;;22.95;4.22;;;;;;;1.58;67.42;100752.66;10414549;28;20497;-65
2023/01/31 05:46:18;;;;;;;27.00;4.35;;;;;;;1.50;67.65;100751.88;10418271;28;20048;-65
2023/01/31 05:51:19;;;;;;;26.77;4.70;;;;;;;1.38;67.91;100745.97;10416064;28;20324;-65
2023/01/31 05:56:22;;;;;;;19.00;4.15;;;;;;;1.35;68.10;100752.88;10416417;28;20095;-64
2023/01/31 06:01:26;;;;;;;18.77;4.78;;;;;;;1.34;68.00;100748.56;10414371;28;20108;-65
2023/01/31 06:06:27;;;;;;;25.98;5.00;;;;;;;1.30;68.08;100752.03;10414834;28;20052;-65
2023/01/31 06:11:29;;;;;;;26.42;5.10;;;;;;;1.27;68.11;100752.09;10415279;28;20037;-65
2023/01/31 06:16:31;;;;;;;23.42;5.32;;;;;;;1.29;68.05;100759.78;10418748;28;20334;-65
2023/01/31 06:21:34;;;;;;;15.93;5.13;;;;;;;1.31;68.07;100766.66;10415770;28;20049;-65
2023/01/31 06:26:35;;;;;;;25.20;5.70;;;;;;;1.26;68.23;100770.97;10416832;28;20055;-65
2023/01/31 06:31:37;;;;;;;16.63;4.93;;;;;;;1.28;68.19;100768.38;10418152;28;20212;-65
2023/01/31 06:36:39;;;;;;;22.77;6.30;;;;;;;1.22;68.35;100758.97;10425457;28;20367;-65
2023/01/31 06:41:40;;;;;;;22.55;6.20;;;;;;;1.17;68.32;100765.06;10423753;28;20049;-65
2023/01/31 06:46:42;;;;;;;19.40;5.93;;;;;;;1.16;68.42;100773.63;10417892;28;20056;-65
2023/01/31 06:51:44;;;;;;;32.50;7.13;;;;;;;1.18;68.49;100783.06;10419531;28;20049;-65
2023/01/31 06:56:46;;;;;;;26.67;6.53;;;;;;;1.29;68.62;100776.13;10416777;28;20052;-65
2023/01/31 07:01:47;;;;;;;27.13;6.57;;;;;;;1.52;68.31;100775.03;10409621;28;20072;-65
2023/01/31 07:06:49;;;;;;;30.00;7.00;;;;;;;1.69;67.96;100780.88;10420079;28;20517;-65
2023/01/31 07:11:51;;;;;;;25.40;6.80;;;;;;;1.68;67.88;100784.34;10420031;28;20413;-66
2023/01/31 07:16:52;;;;;;;24.75;6.50;;;;;;;1.71;67.59;100779.13;10418060;28;20045;-65
2023/01/31 07:21:54;;;;;;;19.75;6.50;;;;;;;1.72;67.59;100780.84;10418818;28;20496;-65
2023/01/31 07:26:56;;;;;;;18.48;6.00;;;;;;;1.71;67.67;100764.50;10417256;28;20156;-65
2023/01/31 07:31:58;;;;;;;23.17;6.78;;;;;;;1.74;67.69;100763.63;10416707;28;20049;-65
2023/01/31 07:37:00;;;;;;;21.67;6.65;;;;;;;1.84;67.59;100760.94;10414443;28;20041;-65
2023/01/31 07:42:01;;;;;;;19.40;6.30;;;;;;;1.90;67.40;100749.69;10418098;28;20514;-65
2023/01/31 07:47:03;;;;;;;21.75;6.00;;;;;;;2.00;67.33;100762.47;10416346;28;20056;-65
2023/01/31 07:52:05;;;;;;;22.35;6.70;;;;;;;2.12;67.14;100761.47;10417766;28;20052;-66
2023/01/31 07:57:08;;;;;;;20.83;5.60;;;;;;;2.19;66.97;100760.53;10415287;28;20124;-65
2023/01/31 08:07:36;;;;;;;23.42;6.25;;;;;;;2.16;66.87;100756.25;10418502;28;20216;-65
2023/01/31 08:12:37;;;;;;;22.33;6.35;;;;;;;2.17;66.83;100755.38;10417870;28;20049;-65
2023/01/31 08:17:39;;;;;;;23.50;5.70;;;;;;;2.14;66.73;100752.84;10421356;28;20056;-65
2023/01/31 08:22:40;;;;;;;20.52;6.45;;;;;;;2.43;66.58;100749.88;10426925;28;20067;-65
2023/01/31 08:27:42;;;;;;;22.67;5.78;;;;;;;2.89;65.59;100725.06;10418056;28;20422;-65
2023/01/31 08:32:44;;;;;;;21.55;5.90;;;;;;;3.20;65.03;100721.97;10419250;28;20099;-64
2023/01/31 08:37:46;;;;;;;21.50;5.18;;;;;;;3.48;64.48;100711.13;10424233;28;20051;-64
2023/01/31 08:42:53;;;;;;;25.30;5.75;;;;;;;3.28;63.88;100720.97;10426852;28;20660;-64
2023/01/31 08:47:57;;;;;;;24.27;5.38;;;;;;;3.23;64.34;100716.75;10426159;28;20053;-63
2023/01/31 08:53:01;;;;;;;19.50;5.47;;;;;;;3.26;64.51;100714.09;10426672;28;20250;-64
2023/01/31 08:58:03;;;;;;;16.00;4.70;;;;;;;3.34;64.08;100736.38;10426185;28;20755;-63
2023/01/31 09:03:05;;;;;;;17.88;5.13;;;;;;;3.50;63.74;100742.09;10419933;28;20059;-63
2023/01/31 09:08:06;;;;;;;22.30;5.20;;;;;;;3.40;63.79;100749.19;10426192;28;20053;-63
2023/01/31 09:13:08;;;;;;;21.20;5.28;;;;;;;3.50;63.72;100752.44;10426361;28;20408;-63
2023/01/31 09:18:10;;;;;;;18.08;5.15;;;;;;;3.37;63.71;100736.34;10426393;28;20057;-63
2023/01/31 09:23:12;;;;;;;17.67;5.32;;;;;;;3.22;64.06;100721.06;10424184;28;20421;-63
2023/01/31 09:28:14;;;;;;;19.63;5.93;;;;;;;3.35;63.95;100716.56;10425341;28;20064;-63
2023/01/31 09:33:16;;;;;;;18.05;5.95;;;;;;;3.29;63.78;100714.06;10425152;28;20382;-63
2023/01/31 09:38:17;;;;;;;17.65;6.35;;;;;;;3.35;63.67;100712.25;10426018;28;20053;-63
2023/01/31 09:43:22;;;;;;;21.73;6.82;;;;;;;3.28;63.65;100720.97;10426585;28;20045;-64
2023/01/31 09:48:28;;;;;;;15.82;5.72;;;;;;;3.50;63.64;100726.59;10425087;28;20532;-63
2023/01/31 09:53:33;;;;;;;17.10;5.85;;;;;;;3.38;63.56;100729.41;10426526;28;20564;-63
2023/01/31 09:58:48;;;;;;;17.98;6.53;;;;;;;3.46;63.15;100727.53;10424907;28;20053;-64
2023/01/31 10:03:55;;;;;;;15.82;6.30;;;;;;;3.57;63.00;100710.97;10425471;28;20315;-64
2023/01/31 10:09:09;;;;;;;17.38;6.13;;;;;;;3.36;63.03;100747.53;10432889;28;20076;-63
2023/01/31 10:14:36;;;;;;;15.63;6.32;;;;;;;3.70;62.89;100719.34;10433245;28;20064;-64
2023/01/31 10:20:16;;;;;;;17.50;6.32;;;;;;;3.89;61.63;100702.59;10434020;28;20054;-63
2023/01/31 10:25:17;;;;;;;16.75;6.68;;;;;;;3.65;62.61;100697.88;10430982;28;20616;-64
2023/01/31 10:30:26;;;;;;;17.90;6.20;;;;;;;3.59;62.39;100693.69;10431584;28;20049;-64
2023/01/31 10:35:38;;;;;;;17.50;6.70;;;;;;;3.54;62.75;100689.44;10432789;28;20057;-63
2023/01/31 10:40:44;;;;;;;19.98;6.78;;;;;;;3.59;62.69;100678.16;10433816;28;20055;-64
2023/01/31 10:45:45;;;;;;;18.48;6.80;;;;;;;3.78;62.53;100673.47;10432179;28;20053;-63
2023/01/31 10:51:24;;;;;;;16.83;6.55;;;;;;;3.84;62.11;100655.28;10427521;28;20075;-63
2023/01/31 10:56:40;;;;;;;17.60;6.47;;;;;;;3.98;61.72;100652.38;10430141;28;20485;-64
2023/01/31 11:01:44;;;;;;;15.23;5.53;;;;;;;4.02;61.85;100641.06;10430182;28;20163;-64
2023/01/31 11:06:45;;;;;;;18.60;7.15;;;;;;;3.82;61.85;100646.66;10427866;28;20175;-64
2023/01/31 11:12:00;;;;;;;15.13;6.15;;;;;;;3.85;61.85;100638.84;10430705;28;20048;-64
2023/01/31 11:17:17;;;;;;;17.73;6.68;;;;;;;3.86;61.70;100625.88;10427767;28;20040;-63
2023/01/31 11:22:29;;;;;;;20.15;6.30;;;;;;;3.83;61.65;100622.47;10428707;28;20524;-64
2023/01/31 11:27:41;;;;;;;18.77;6.95;;;;;;;3.57;62.08;100598.88;10429125;28;20057;-63
2023/01/31 11:32:43;;;;;;;15.00;6.47;;;;;;;3.66;62.10;100589.19;10429898;28;20056;-64
2023/01/31 11:38:11;;;;;;;13.32;5.82;;;;;;;3.51;62.01;100580.91;10427924;28;20053;-63
2023/01/31 11:43:13;;;;;;;21.33;9.43;;;;;;;3.73;62.10;100595.09;10426762;28;20079;-63
2023/01/31 11:48:22;;;;;;;18.20;7.47;;;;;;;3.74;61.95;100573.53;10426101;28;20053;-63
2023/01/31 11:53:44;;;;;;;15.48;6.10;;;;;;;3.82;61.58;100541.41;10425928;28;20063;-64
2023/01/31 11:58:51;;;;;;;26.95;11.48;;;;;;;3.89;61.77;100547.34;10426800;28;20564;-63
2023/01/31 12:04:04;;;;;;;17.75;7.53;;;;;;;3.98;61.68;100544.53;10429627;28;20615;-63
2023/01/31 12:09:22;;;;;;;24.25;11.85;;;;;;;3.88;61.76;100536.13;10427628;28;20044;-65
2023/01/31 12:14:36;;;;;;;14.02;6.53;;;;;;;4.28;60.82;100517.94;10429280;28;20607;-65
2023/01/31 12:19:58;;;;;;;12.93;5.70;;;;;;;4.07;61.73;100496.91;10427898;28;20079;-65
2023/01/31 12:25:06;;;;;;;14.35;6.25;;;;;;;4.37;61.27;100496.97;10427875;28;20357;-65
2023/01/31 12:30:20;;;;;;;10.30;6.00;;;;;;;4.25;60.85;100471.38;10426528;28;20053;-64
2023/01/31 12:35:39;;;;;;;12.45;5.00;;;;;;;4.50;60.77;100469.88;10428339;28;20060;-65
2023/01/31 12:41:28;;;;;;;13.38;5.30;;;;;;;4.64;60.57;100452.22;10427891;28;20044;-65
2023/01/31 12:46:39;;;;;;;11.68;5.28;;;;;;;4.66;60.34;100445.25;10410759;28;20371;-65
2023/01/31 12:51:49;;;;;;;13.00;5.15;;;;;;;4.68;60.94;100414.09;10418759;28;20061;-65
2023/01/31 12:56:58;;;;;;;15.70;5.60;;;;;;;4.68;61.73;100422.72;10423126;28;20037;-65
2023/01/31 13:01:59;;;;;;;12.50;5.18;;;;;;;4.41;62.09;100404.53;10423654;28;20053;-65
2023/01/31 13:07:27;;;;;;;11.23;4.95;;;;;;;4.43;62.89;100410.50;10418067;28;20057;-65
2023/01/31 13:12:34;;;;;;;11.43;5.22;;;;;;;4.61;62.64;100407.41;10422225;28;20049;-65
2023/01/31 13:17:39;;;;;;;13.82;5.40;;;;;;;4.96;61.90;100394.31;10408764;28;20075;-64
2023/01/31 13:22:52;;;;;;;11.32;5.30;;;;;;;4.61;62.48;100410.00;10417522;28;20481;-65
2023/01/31 13:28:00;;;;;;;13.77;5.65;;;;;;;4.52;62.74;100407.66;10422602;28;20570;-65
2023/01/31 13:33:27;;;;;;;13.40;4.97;;;;;;;4.34;63.24;100410.75;10421827;28;20237;-65
2023/01/31 13:38:37;;;;;;;12.63;5.40;;;;;;;4.60;63.06;100406.56;10422326;28;20053;-65
2023/01/31 13:43:39;;;;;;;13.45;5.90;;;;;;;4.62;63.08;100412.53;10421081;28;20163;-64
2023/01/31 13:48:47;;;;;;;12.35;4.93;;;;;;;4.55;62.86;100405.84;10420246;28;20053;-65
2023/01/31 13:54:14;;;;;;;13.02;5.45;;;;;;;4.40;62.86;100403.66;10421515;28;20053;-64
2023/01/31 13:59:21;;;;;;;10.13;5.15;;;;;;;4.53;62.62;100397.28;10422300;28;20140;-65
2023/01/31 14:04:33;;;;;;;12.30;5.40;;;;;;;4.55;62.43;100394.63;10422747;28;20167;-64
2023/01/31 14:09:38;;;;;;;11.70;4.68;;;;;;;4.54;63.16;100401.56;10422180;28;20080;-65
2023/01/31 14:14:55;;;;;;;12.55;5.25;;;;;;;4.52;62.77;100395.56;10416415;28;20045;-64
2023/01/31 14:19:59;;;;;;;11.90;5.35;;;;;;;4.66;62.28;100392.56;10417294;28;20048;-65
2023/01/31 14:25:05;;;;;;;10.18;4.72;;;;;;;4.41;63.11;100394.16;10418274;28;20457;-65
2023/01/31 14:30:10;;;;;;;11.23;5.30;;;;;;;4.52;63.03;100385.19;10419345;28;20071;-64
2023/01/31 14:35:11;;;;;;;12.10;4.90;;;;;;;4.56;62.74;100384.22;10420414;28;20172;-64
2023/01/31 14:40:32;;;;;;;12.07;4.45;;;;;;;4.46;62.99;100375.00;10416050;28;20126;-64
2023/01/31 14:45:52;;;;;;;12.27;4.38;;;;;;;4.57;62.95;100373.00;10418322;28;20481;-64
2023/01/31 14:51:18;;;;;;;12.40;4.15;;;;;;;4.64;62.82;100366.72;10415512;28;20044;-64
2023/01/31 14:56:38;;;;;;;9.90;3.95;;;;;;;4.62;63.28;100362.47;10425913;28;20044;-64
2023/01/31 15:01:40;;;;;;;9.75;4.00;;;;;;;4.55;63.37;100364.41;10422662;28;20053;-64
2023/01/31 15:06:43;;;;;;;9.27;4.18;;;;;;;4.49;63.68;100367.19;10422081;28;20060;-65
2023/01/31 15:11:46;;;;;;;8.00;3.97;;;;;;;4.25;64.56;100385.94;10422016;28;20048;-65
2023/01/31 15:16:56;;;;;;;10.02;4.47;;;;;;;4.46;64.62;100387.09;10415765;28;20049;-65
2023/01/31 15:22:10;;;;;;;13.20;5.25;;;;;;;4.64;64.34;100391.78;10425714;28;20075;-64
2023/01/31 15:27:24;;;;;;;7.57;4.38;;;;;;;4.68;64.52;100404.59;10421605;28;20203;-64
2023/01/31 15:32:39;;;;;;;10.48;3.90;;;;;;;4.46;65.52;100387.09;10421965;28;20055;-65
2023/01/31 15:37:41;;;;;;;8.18;3.70;;;;;;;4.38;65.68;100379.56;10410817;28;20448;-64
2023/01/31 15:42:43;;;;;;;7.07;3.42;;;;;;;4.32;66.37;100379.72;10418551;28;20053;-64
2023/01/31 15:47:59;;;;;;;8.63;4.95;;;;;;;4.37;66.44;100383.03;10424099;28;20632;-65
2023/01/31 15:53:05;;;;;;;8.18;4.00;;;;;;;4.29;66.91;100379.78;10423105;28;20378;-64
2023/01/31 15:58:17;;;;;;;10.73;5.45;;;;;;;4.33;66.92;100390.94;10421802;28;20401;-64
2023/01/31 16:03:22;;;;;;;10.43;4.80;;;;;;;4.42;66.71;100395.84;10412087;28;20056;-64
2023/01/31 16:08:24;;;;;;;7.82;4.20;;;;;;;4.36;67.18;100399.47;10421156;28;20059;-64
2023/01/31 16:13:26;;;;;;;9.35;4.38;;;;;;;4.32;67.19;100400.44;10421126;28;20080;-64
2023/01/31 16:18:28;;;;;;;5.93;3.30;;;;;;;4.36;67.02;100412.41;10423587;28;20056;-65
2023/01/31 16:23:36;;;;;;;7.40;3.60;;;;;;;4.45;66.84;100407.00;10422107;28;20306;-64
2023/01/31 16:28:55;;;;;;;7.25;3.83;;;;;;;4.33;67.31;100415.06;10422216;28;20506;-64
2023/01/31 16:34:00;;;;;;;7.95;4.97;;;;;;;4.28;67.56;100416.94;10422028;28;20052;-65
2023/01/31 16:39:05;;;;;;;7.03;3.40;;;;;;;4.34;67.71;100437.50;10421555;28;20140;-65
2023/01/31 16:44:13;;;;;;;5.78;3.25;;;;;;;4.43;67.69;100431.22;10417261;28;20120;-65
2023/01/31 16:49:27;;;;;;;6.28;3.10;;;;;;;4.37;68.18;100444.34;10418339;28;20688;-65
2023/01/31 16:54:30;;;;;;;7.90;4.13;;;;;;;4.22;68.93;100440.41;10420996;28;20053;-64
2023/01/31 16:59:37;;;;;;;5.78;3.17;;;;;;;4.39;68.38;100429.63;10418121;28;20061;-64
2023/01/31 17:04:44;;;;;;;4.68;2.40;;;;;;;4.30;68.81;100428.13;10420845;28;20128;-65
2023/01/31 17:09:47;;;;;;;3.80;2.45;;;;;;;4.20;68.97;100425.81;10419755;28;20420;-64
2023/01/31 17:14:48;;;;;;;4.90;2.80;;;;;;;4.30;68.53;100438.47;10420706;28;20095;-64
2023/01/31 17:19:50;;;;;;;8.75;5.25;;;;;;;4.30;68.49;100428.13;10419948;28;20049;-65
2023/01/31 17:24:52;;;;;;;8.65;5.57;;;;;;;4.28;68.86;100427.31;10421096;28;20079;-64
2023/01/31 17:29:54;;;;;;;6.88;4.53;;;;;;;4.29;68.78;100436.75;10418600;28;20681;-64
2023/01/31 17:34:55;;;;;;;6.82;4.13;;;;;;;4.26;69.27;100442.03;10421072;28;20051;-66
2023/01/31 17:39:57;;;;;;;5.60;3.78;;;;;;;4.33;69.13;100438.38;10419397;28;20041;-66
2023/01/31 17:44:59;;;;;;;4.53;2.90;;;;;;;4.39;69.10;100427.84;10419959;28;20413;-66
2023/01/31 17:50:00;;;;;;;4.68;2.90;;;;;;;4.38;69.25;100431.34;10419961;28;20056;-66
2023/01/31 17:55:02;;;;;;;3.92;2.50;;;;;;;4.39;69.43;100435.63;10418674;28;20052;-66
2023/01/31 18:00:05;;;;;;;4.25;2.40;;;;;;;4.40;69.39;100432.16;10415813;28;20312;-66
2023/01/31 18:05:08;;;;;;;3.65;2.53;;;;;;;4.34;69.91;100442.69;10420385;28;20598;-66
2023/01/31 18:10:10;;;;;;;4.63;2.63;;;;;;;4.36;69.81;100438.31;10417087;28;20044;-66
2023/01/31 18:15:12;;;;;;;5.60;2.25;;;;;;;4.37;69.92;100452.94;10420374;28;20049;-66
2023/01/31 18:20:14;;;;;;;4.20;2.55;;;;;;;4.56;69.29;100455.91;10418836;28;20076;-66
2023/01/31 18:25:15;;;;;;;3.50;2.55;;;;;;;4.67;69.03;100462.50;10419806;28;20052;-66
2023/01/31 18:30:17;;;;;;;4.75;2.63;;;;;;;4.72;69.09;100456.34;10423332;28;20045;-66
2023/01/31 18:35:20;;;;;;;4.13;2.60;;;;;;;4.60;69.24;100442.81;10427533;28;20421;-66
2023/01/31 18:40:23;;;;;;;3.42;2.30;;;;;;;4.63;69.28;100450.53;10425677;28;20079;-66
2023/01/31 18:45:25;;;;;;;3.78;2.30;;;;;;;4.74;68.93;100450.22;10428605;28;20041;-66
2023/01/31 18:50:27;;;;;;;4.20;2.40;;;;;;;4.63;69.03;100445.34;10423259;28;20080;-66
2023/01/31 18:55:31;;;;;;;4.38;2.53;;;;;;;4.64;69.15;100444.44;10425869;28;20045;-66
2023/01/31 19:00:33;;;;;;;3.28;1.95;;;;;;;4.80;68.54;100441.44;10424336;28;20207;-65
2023/01/31 19:05:36;;;;;;;3.25;2.28;;;;;;;4.79;68.33;100432.81;10427761;28;20052;-66
2023/01/31 19:10:37;;;;;;;4.68;2.70;;;;;;;4.66;68.64;100432.28;10425116;28;20053;-66
2023/01/31 19:15:39;;;;;;;3.20;2.40;;;;;;;4.69;68.66;100437.41;10426664;28;20412;-66
2023/01/31 19:20:40;;;;;;;3.67;2.17;;;;;;;4.80;68.33;100438.84;10423183;28;20045;-67
2023/01/31 19:25:42;;;;;;;3.83;2.22;;;;;;;4.75;68.24;100438.97;10426958;28;20341;-66
2023/01/31 19:30:44;;;;;;;3.90;2.42;;;;;;;4.73;68.03;100425.22;10422499;28;20936;-67
2023/01/31 19:35:46;;;;;;;3.85;2.30;;;;;;;4.54;68.11;100419.69;10423809;28;20501;-66
2023/01/31 19:40:50;;;;;;;5.03;2.30;;;;;;;4.44;68.62;100426.00;10420286;28;20060;-66
2023/01/31 19:45:52;;;;;;;3.78;2.30;;;;;;;4.50;68.38;100418.06;10426737;28;20103;-66
2023/01/31 19:50:55;;;;;;;6.47;2.75;;;;;;;4.58;68.36;100423.03;10425893;28;20859;-66
2023/01/31 19:55:57;;;;;;;6.70;3.88;;;;;;;4.62;68.27;100419.47;10425973;28;20049;-66
2023/01/31 20:01:10;;;;;;;4.00;2.55;;;;;;;4.66;67.98;100426.25;10428608;28;20103;-66
2023/01/31 20:06:16;;;;;;;3.90;2.70;;;;;;;4.63;68.24;100447.94;10427122;28;20049;-66
2023/01/31 20:11:18;;;;;;;5.10;3.00;;;;;;;4.81;67.95;100461.25;10426241;28;20044;-67
2023/01/31 20:16:20;;;;;;;5.55;2.70;;;;;;;4.79;68.08;100450.09;10420198;28;20088;-66
2023/01/31 20:21:22;;;;;;;4.82;2.80;;;;;;;4.69;68.54;100457.28;10429451;28;20049;-66
2023/01/31 20:26:26;;;;;;;4.68;2.80;;;;;;;4.66;68.57;100458.19;10425493;28;20053;-66
2023/01/31 20:31:28;;;;;;;4.45;3.00;;;;;;;4.66;68.59;100463.38;10424517;28;20106;-66
2023/01/31 20:36:31;;;;;;;5.07;3.22;;;;;;;4.67;68.89;100496.19;10426293;28;20059;-66
2023/01/31 20:41:32;;;;;;;83.10;44.10;;;;;;;4.79;68.69;100478.59;10427826;28;20135;-66
2023/01/31 20:46:34;;;;;;;6.13;3.70;;;;;;;4.78;68.82;100487.28;10425099;28;20052;-66
2023/01/31 20:51:36;;;;;;;5.50;3.60;;;;;;;4.74;68.84;100486.47;10422794;28;20523;-67
2023/01/31 20:56:38;;;;;;;5.22;3.08;;;;;;;4.75;69.03;100497.69;10426780;28;20359;-66
2023/01/31 21:01:41;;;;;;;6.00;3.85;;;;;;;4.66;69.22;100478.91;10423412;28;20059;-67
2023/01/31 21:06:43;;;;;;;6.15;3.05;;;;;;;4.68;69.10;100487.50;10425103;28;20055;-67
2023/01/31 21:11:45;;;;;;;16.55;8.90;;;;;;;4.66;69.05;100489.28;10426109;28;20949;-66
2023/01/31 21:16:47;;;;;;;5.82;3.65;;;;;;;4.64;69.13;100475.53;10424294;28;20045;-67
2023/01/31 21:21:49;;;;;;;5.22;3.17;;;;;;;4.56;69.32;100467.09;10423958;28;20493;-67
2023/01/31 21:26:51;;;;;;;7.85;2.90;;;;;;;4.57;69.29;100468.81;10423213;28;20515;-66
2023/01/31 21:31:54;;;;;;;6.63;3.10;;;;;;;4.70;69.01;100459.81;10421481;28;20123;-66
2023/01/31 21:36:57;;;;;;;5.85;2.80;;;;;;;4.66;68.83;100450.44;10424790;28;20048;-66
2023/01/31 21:42:15;;;;;;;6.32;2.80;;;;;;;4.52;68.96;100456.88;10423418;28;20064;-66
2023/01/31 21:47:16;;;;;;;6.65;2.63;;;;;;;4.48;69.20;100461.28;10423130;28;20069;-66
2023/01/31 21:52:18;;;;;;;5.10;2.80;;;;;;;4.46;69.29;100454.44;10424886;28;20051;-66
2023/01/31 21:57:20;;;;;;;4.43;3.05;;;;;;;4.49;69.28;100442.28;10420486;28;20056;-66
2023/01/31 22:02:22;;;;;;;5.00;3.25;;;;;;;4.42;69.29;100440.72;10426670;28;20724;-66
2023/01/31 22:07:24;;;;;;;4.65;3.50;;;;;;;4.23;69.52;100430.91;10428787;28;20325;-66
2023/01/31 22:12:25;;;;;;;5.60;4.15;;;;;;;4.13;69.65;100425.09;10417341;28;20566;-66
2023/01/31 22:17:28;;;;;;;6.28;4.63;;;;;;;3.99;70.04;100413.41;10430551;28;20533;-66
2023/01/31 22:22:30;;;;;;;6.03;3.75;;;;;;;3.97;70.02;100428.97;10428790;28;20107;-66
2023/01/31 22:27:32;;;;;;;6.57;4.53;;;;;;;3.98;70.25;100430.69;10431108;28;20645;-66
2023/01/31 22:32:33;;;;;;;6.72;4.40;;;;;;;4.05;69.89;100421.03;10428038;28;20053;-66
2023/01/31 22:37:35;;;;;;;6.78;4.43;;;;;;;3.90;70.30;100421.41;10430276;28;20523;-65
2023/01/31 22:42:37;;;;;;;6.30;5.05;;;;;;;3.88;70.32;100423.19;10429262;28;20051;-65
2023/01/31 22:47:40;;;;;;;12.05;7.70;;;;;;;3.77;70.64;100413.06;10431642;28;20416;-66
2023/01/31 22:52:42;;;;;;;13.18;7.78;;;;;;;3.72;70.61;100408.00;10428463;28;20044;-66
2023/01/31 22:57:44;;;;;;;19.08;11.32;;;;;;;3.71;70.65;100400.28;10431379;28;20053;-66
2023/01/31 23:02:46;;;;;;;15.98;9.02;;;;;;;3.73;70.97;100388.16;10431430;28;20057;-66
2023/01/31 23:07:47;;;;;;;14.10;7.82;;;;;;;3.94;70.62;100379.91;10430263;28;20059;-66
2023/01/31 23:12:49;;;;;;;17.38;8.25;;;;;;;4.17;70.01;100372.34;10430456;28;20489;-65
2023/01/31 23:17:51;;;;;;;23.40;13.88;;;;;;;4.22;70.04;100377.41;10426663;28;20421;-65
2023/01/31 23:22:54;;;;;;;10.05;6.68;;;;;;;4.30;69.78;100372.88;10430360;28;20061;-65
2023/01/31 23:27:56;;;;;;;14.65;8.57;;;;;;;4.28;69.79;100382.44;10426799;28;20555;-66
2023/01/31 23:32:57;;;;;;;14.45;8.63;;;;;;;4.38;69.35;100366.63;10430042;28;20158;-65
2023/01/31 23:37:59;;;;;;;14.38;7.65;;;;;;;4.39;69.43;100359.69;10428568;28;20048;-65